createdAt,value
2023-03-27T00:01:25.184Z,96918.00
2023-03-27T00:03:53.379Z,96935.00
2023-03-27T00:06:20.918Z,96930.00
2023-03-27T00:08:51.110Z,96929.00
2023-03-27T00:11:22.301Z,96957.00
2023-03-27T00:13:54.567Z,96936.00
2023-03-27T00:16:25.068Z,96952.00
2023-03-27T00:18:52.791Z,96950.00
2023-03-27T00:21:22.293Z,96957.00
2023-03-27T00:23:49.696Z,96969.00
2023-03-27T00:26:16.671Z,96970.00
2023-03-27T00:28:43.834Z,96966.00
2023-03-27T00:31:13.813Z,96981.00
2023-03-27T00:33:41.348Z,96982.00
2023-03-27T00:36:10.087Z,96980.00
2023-03-27T00:38:39.348Z,97001.00
2023-03-27T00:41:07.210Z,96996.00
2023-03-27T00:43:35.953Z,97006.00
2023-03-27T00:46:27.461Z,97013.00
2023-03-27T00:48:57.054Z,97010.00
2023-03-27T00:51:26.700Z,97004.00
2023-03-27T00:53:55.988Z,97011.00
2023-03-27T00:56:24.402Z,97008.00
2023-03-27T00:58:58.283Z,96997.00
2023-03-27T01:01:28.943Z,97009.00
2023-03-27T01:04:01.422Z,97024.00
2023-03-27T01:06:31.100Z,97014.00
2023-03-27T01:08:58.407Z,97023.00
2023-03-27T01:11:42.513Z,97021.00
2023-03-27T01:14:57.162Z,97038.00
2023-03-27T01:18:03.595Z,97032.00
2023-03-27T01:20:33.390Z,97042.00
2023-03-27T01:23:35.445Z,97043.00
2023-03-27T01:26:59.848Z,97058.00
2023-03-27T01:30:12.699Z,97062.00
2023-03-27T01:33:41.901Z,97047.00
2023-03-27T01:36:55.594Z,97062.00
2023-03-27T01:39:57.472Z,97062.00
2023-03-27T01:43:09.292Z,97081.00
2023-03-27T01:45:52.461Z,97075.00
2023-03-27T01:48:34.218Z,97079.00
2023-03-27T01:51:27.280Z,97079.00
2023-03-27T01:54:39.438Z,97090.00
2023-03-27T01:57:24.740Z,97080.00
2023-03-27T02:00:18.727Z,97100.00
2023-03-27T02:03:13.109Z,97098.00
2023-03-27T02:05:56.173Z,97106.00
2023-03-27T02:08:42.594Z,97129.00
2023-03-27T02:11:16.263Z,97103.00
2023-03-27T02:14:00.341Z,97134.00
2023-03-27T02:16:34.296Z,97124.00
2023-03-27T02:19:08.248Z,97128.00
2023-03-27T02:21:35.181Z,97126.00
2023-03-27T02:24:05.849Z,97131.00
2023-03-27T02:26:33.878Z,97132.00
2023-03-27T02:29:36.160Z,97147.00
2023-03-27T02:32:39.562Z,97150.00
2023-03-27T02:35:25.816Z,97147.00
2023-03-27T02:38:15.228Z,97155.00
2023-03-27T02:41:10.724Z,97171.00
2023-03-27T02:44:05.719Z,97167.00
2023-03-27T02:47:07.424Z,97164.00
2023-03-27T02:49:58.389Z,97156.00
2023-03-27T02:52:48.019Z,97175.00
2023-03-27T02:55:33.101Z,97171.00
2023-03-27T02:58:13.102Z,97171.00
2023-03-27T03:00:52.292Z,97183.00
2023-03-27T03:03:53.465Z,97187.00
2023-03-27T03:06:37.264Z,97187.00
2023-03-27T03:09:06.285Z,97198.00
2023-03-27T03:11:50.197Z,97202.00
2023-03-27T03:14:26.263Z,97208.00
2023-03-27T03:16:53.153Z,97225.00
2023-03-27T03:19:24.115Z,97232.00
2023-03-27T03:21:51.068Z,97239.00
2023-03-27T03:24:19.171Z,97211.00
2023-03-27T03:26:49.921Z,97233.00
2023-03-27T03:29:21.633Z,97232.00
2023-03-27T03:32:06.287Z,97237.00
2023-03-27T03:34:33.368Z,97229.00
2023-03-27T03:37:00.728Z,97241.00
2023-03-27T03:39:30.990Z,97257.00
2023-03-27T03:41:57.895Z,97255.00
2023-03-27T03:44:24.827Z,97248.00
2023-03-27T03:46:51.917Z,97242.00
2023-03-27T03:49:21.737Z,97268.00
2023-03-27T03:52:03.644Z,97256.00
2023-03-27T03:54:32.845Z,97269.00
2023-03-27T03:56:59.785Z,97268.00
2023-03-27T03:59:26.826Z,97280.00
2023-03-27T04:02:29.137Z,97284.00
2023-03-27T04:05:08.772Z,97271.00
2023-03-27T04:07:40.435Z,97289.00
2023-03-27T04:10:23.520Z,97282.00
2023-03-27T04:12:51.929Z,97284.00
2023-03-27T04:15:27.084Z,97288.00
2023-03-27T04:18:20.290Z,97304.00
2023-03-27T04:20:49.835Z,97293.00
2023-03-27T04:23:19.092Z,97322.00
2023-03-27T04:25:47.022Z,97324.00
2023-03-27T04:28:18.541Z,97311.00
2023-03-27T04:30:51.117Z,97315.00
2023-03-27T04:33:22.943Z,97329.00
2023-03-27T04:36:10.918Z,97337.00
2023-03-27T04:39:02.232Z,97346.00
2023-03-27T04:41:29.588Z,97341.00
2023-03-27T04:43:56.435Z,97349.00
2023-03-27T04:46:23.605Z,97361.00
2023-03-27T04:48:56.794Z,97354.00
2023-03-27T04:51:47.869Z,97360.00
2023-03-27T04:54:14.899Z,97364.00
2023-03-27T04:56:45.655Z,97376.00
2023-03-27T04:59:13.383Z,97379.00
2023-03-27T05:01:40.337Z,97373.00
2023-03-27T05:04:21.831Z,97378.00
2023-03-27T05:07:12.138Z,97364.00
2023-03-27T05:09:39.024Z,97392.00
2023-03-27T05:12:07.012Z,97381.00
2023-03-27T05:14:40.033Z,97394.00
2023-03-27T05:17:16.440Z,97400.00
2023-03-27T05:19:45.140Z,97380.00
2023-03-27T05:22:13.740Z,97399.00
2023-03-27T05:24:50.095Z,97390.00
2023-03-27T05:27:17.209Z,97402.00
2023-03-27T05:29:47.898Z,97401.00
2023-03-27T05:32:16.708Z,97410.00
2023-03-27T05:34:50.875Z,97390.00
2023-03-27T05:37:19.067Z,97403.00
2023-03-27T05:40:06.889Z,97411.00
2023-03-27T05:42:33.781Z,97427.00
2023-03-27T05:45:00.549Z,97420.00
2023-03-27T05:47:28.017Z,97427.00
2023-03-27T05:49:54.908Z,97421.00
2023-03-27T05:52:22.051Z,97443.00
2023-03-27T05:54:55.557Z,97428.00
2023-03-27T05:57:22.585Z,97436.00
2023-03-27T05:59:55.227Z,97443.00
2023-03-27T06:02:24.017Z,97450.00
2023-03-27T06:04:56.143Z,97429.00
2023-03-27T06:07:35.770Z,97443.00
2023-03-27T06:10:13.149Z,97455.00
2023-03-27T06:12:46.447Z,97472.00
2023-03-27T06:15:26.209Z,97466.00
2023-03-27T06:18:06.973Z,97464.00
2023-03-27T06:20:39.869Z,97480.00
2023-03-27T06:23:09.151Z,97477.00
2023-03-27T06:25:39.131Z,97483.00
2023-03-27T06:28:09.198Z,97491.00
2023-03-27T06:30:42.091Z,97495.00
2023-03-27T06:33:35.328Z,97487.00
2023-03-27T06:36:07.072Z,97487.00
2023-03-27T06:38:37.121Z,97493.00
2023-03-27T06:41:05.312Z,97496.00
2023-03-27T06:43:53.969Z,97509.00
2023-03-27T06:46:45.144Z,97494.00
2023-03-27T06:49:32.802Z,97504.00
2023-03-27T06:52:08.530Z,97517.00
2023-03-27T06:54:35.544Z,97517.00
2023-03-27T06:57:02.406Z,97517.00
2023-03-27T06:59:40.718Z,97522.00
2023-03-27T07:02:11.500Z,97533.00
2023-03-27T07:05:10.732Z,97524.00
2023-03-27T07:07:41.428Z,97525.00
2023-03-27T07:10:11.015Z,97534.00
2023-03-27T07:12:40.094Z,97552.00
2023-03-27T07:15:08.238Z,97551.00
2023-03-27T07:17:48.036Z,97561.00
2023-03-27T07:20:18.367Z,97552.00
2023-03-27T07:22:45.299Z,97547.00
2023-03-27T07:25:32.685Z,97549.00
2023-03-27T07:28:00.690Z,97565.00
2023-03-27T07:30:28.961Z,97564.00
2023-03-27T07:32:58.170Z,97559.00
2023-03-27T07:35:26.013Z,97563.00
2023-03-27T07:38:18.647Z,97577.00
2023-03-27T07:41:09.235Z,97577.00
2023-03-27T07:43:42.155Z,97603.00
2023-03-27T07:46:09.696Z,97608.00
2023-03-27T07:48:36.526Z,97610.00
2023-03-27T07:51:13.364Z,97607.00
2023-03-27T07:53:41.445Z,97602.00
2023-03-27T07:56:14.959Z,97600.00
2023-03-27T07:58:44.756Z,97598.00
2023-03-27T08:01:17.888Z,97612.00
2023-03-27T08:03:47.211Z,97623.00
2023-03-27T08:06:15.544Z,97623.00
2023-03-27T08:08:42.867Z,97614.00
2023-03-27T08:11:23.042Z,97622.00
2023-03-27T08:13:50.824Z,97622.00
2023-03-27T08:16:19.245Z,97619.00
2023-03-27T08:18:49.782Z,97641.00
2023-03-27T08:21:17.280Z,97624.00
2023-03-27T08:23:49.597Z,97641.00
2023-03-27T08:26:34.978Z,97628.00
2023-03-27T08:29:05.887Z,97639.00
2023-03-27T08:31:34.370Z,97635.00
2023-03-27T08:34:04.023Z,97620.00
2023-03-27T08:36:41.051Z,97635.00
2023-03-27T08:39:08.215Z,97632.00
2023-03-27T08:42:18.514Z,97647.00
2023-03-27T08:44:55.141Z,97643.00
2023-03-27T08:47:46.161Z,97628.00
2023-03-27T08:50:42.327Z,97641.00
2023-03-27T08:53:48.643Z,97648.00
2023-03-27T08:56:20.836Z,97648.00
2023-03-27T08:58:52.442Z,97643.00
2023-03-27T09:01:54.359Z,97651.00
2023-03-27T09:04:46.888Z,97666.00
2023-03-27T09:07:41.289Z,97668.00
2023-03-27T09:10:39.653Z,97656.00
2023-03-27T09:13:43.440Z,97676.00
2023-03-27T09:16:27.846Z,97671.00
2023-03-27T09:19:09.932Z,97681.00
2023-03-27T09:21:46.835Z,97677.00
2023-03-27T09:24:33.376Z,97656.00
2023-03-27T09:27:29.648Z,97673.00
2023-03-27T09:30:18.487Z,97675.00
2023-03-27T09:33:05.535Z,97669.00
2023-03-27T09:35:35.515Z,97676.00
2023-03-27T09:38:23.380Z,97669.00
2023-03-27T09:40:59.274Z,97686.00
2023-03-27T09:43:54.181Z,97676.00
2023-03-27T09:46:24.688Z,97679.00
2023-03-27T09:49:20.857Z,97692.00
2023-03-27T09:51:53.720Z,97689.00
2023-03-27T09:54:54.551Z,97684.00
2023-03-27T09:57:33.741Z,97668.00
2023-03-27T10:00:25.094Z,97696.00
2023-03-27T10:03:05.916Z,97687.00
2023-03-27T10:05:35.828Z,97711.00
2023-03-27T10:08:37.721Z,97707.00
2023-03-27T10:11:16.121Z,97714.00
2023-03-27T10:13:50.784Z,97706.00
2023-03-27T10:16:22.776Z,97716.00
2023-03-27T10:19:20.064Z,97703.00
2023-03-27T10:21:48.717Z,97706.00
2023-03-27T10:24:44.178Z,97704.00
2023-03-27T10:27:36.064Z,97714.00
2023-03-27T10:30:40.329Z,97693.00
2023-03-27T10:33:33.765Z,97708.00
2023-03-27T10:36:13.945Z,97701.00
2023-03-27T10:38:42.346Z,97719.00
2023-03-27T10:41:28.714Z,97705.00
2023-03-27T10:43:57.896Z,97705.00
2023-03-27T10:46:30.951Z,97713.00
2023-03-27T10:49:57.509Z,97716.00
2023-03-27T10:52:50.257Z,97711.00
2023-03-27T10:55:51.663Z,97727.00
2023-03-27T10:58:24.165Z,97748.00
2023-03-27T11:01:06.070Z,97782.00
2023-03-27T11:04:04.395Z,97769.00
2023-03-27T11:06:42.365Z,97754.00
2023-03-27T11:09:36.925Z,97751.00
2023-03-27T11:12:16.781Z,97755.00
2023-03-27T11:15:11.199Z,97753.00
2023-03-27T11:17:51.918Z,97737.00
2023-03-27T11:20:33.429Z,97755.00
2023-03-27T11:23:28.578Z,97736.00
2023-03-27T11:26:55.582Z,97716.00
2023-03-27T11:29:30.294Z,97721.00
2023-03-27T11:32:15.680Z,97728.00
2023-03-27T11:35:04.215Z,97735.00
2023-03-27T11:38:15.005Z,97740.00
2023-03-27T11:40:47.716Z,97758.00
2023-03-27T11:43:18.974Z,97772.00
2023-03-27T11:46:07.913Z,97766.00
2023-03-27T11:48:51.494Z,97774.00
2023-03-27T11:51:41.667Z,97760.00
2023-03-27T11:54:33.359Z,97769.00
2023-03-27T11:57:25.700Z,97765.00
2023-03-27T12:00:26.962Z,97755.00
2023-03-27T12:03:32.410Z,97758.00
2023-03-27T12:06:16.540Z,97757.00
2023-03-27T12:09:05.939Z,97756.00
2023-03-27T12:12:26.840Z,97767.00
2023-03-27T12:15:52.492Z,97768.00
2023-03-27T12:19:27.742Z,97776.00
2023-03-27T12:22:28.910Z,97774.00
2023-03-27T12:25:30.957Z,97770.00
2023-03-27T12:28:48.089Z,97758.00
2023-03-27T12:32:07.771Z,97761.00
2023-03-27T12:34:53.426Z,97758.00
2023-03-27T12:37:34.521Z,97752.00
2023-03-27T12:40:02.144Z,97769.00
2023-03-27T12:42:49.302Z,97766.00
2023-03-27T12:45:26.775Z,97765.00
2023-03-27T12:48:10.875Z,97769.00
2023-03-27T12:50:51.229Z,97782.00
2023-03-27T12:53:27.153Z,97765.00
2023-03-27T12:56:16.842Z,97779.00
2023-03-27T12:58:52.249Z,97779.00
2023-03-27T13:01:51.737Z,97802.00
2023-03-27T13:05:00.893Z,97804.00
2023-03-27T13:07:43.207Z,97810.00
2023-03-27T13:11:09.206Z,97813.00
2023-03-27T13:14:13.913Z,97818.00
2023-03-27T13:17:09.405Z,97802.00
2023-03-27T13:20:08.872Z,97796.00
2023-03-27T13:23:19.570Z,97802.00
2023-03-27T13:26:07.787Z,97817.00
2023-03-27T13:28:46.397Z,97813.00
2023-03-27T13:31:48.887Z,97803.00
2023-03-27T13:34:42.441Z,97800.00
2023-03-27T13:37:14.781Z,97810.00
2023-03-27T13:40:14.608Z,97810.00
2023-03-27T13:42:48.736Z,97809.00
2023-03-27T13:45:23.900Z,97819.00
2023-03-27T13:48:36.535Z,97808.00
2023-03-27T13:51:40.974Z,97816.00
2023-03-27T13:54:56.894Z,97834.00
2023-03-27T13:58:29.787Z,97830.00
2023-03-27T14:02:04.638Z,97812.00
2023-03-27T14:05:13.501Z,97838.00
2023-03-27T14:08:21.100Z,97807.00
2023-03-27T14:12:01.763Z,97832.00
2023-03-27T14:15:38.312Z,97812.00
2023-03-27T14:19:01.496Z,97829.00
2023-03-27T14:21:49.491Z,97836.00
2023-03-27T14:24:30.390Z,97823.00
2023-03-27T14:27:15.823Z,97846.00
2023-03-27T14:29:45.001Z,97861.00
2023-03-27T14:32:20.421Z,97880.00
2023-03-27T14:34:54.736Z,97883.00
2023-03-27T14:37:36.687Z,97883.00
2023-03-27T14:40:33.885Z,97881.00
2023-03-27T14:43:07.040Z,97876.00
2023-03-27T14:45:40.676Z,97878.00
2023-03-27T14:48:22.902Z,97873.00
2023-03-27T14:51:01.752Z,97886.00
2023-03-27T14:53:43.880Z,97885.00
2023-03-27T14:56:41.432Z,97883.00
2023-03-27T14:59:48.908Z,97891.00
2023-03-27T15:02:23.038Z,97885.00
2023-03-27T15:05:00.904Z,97898.00
2023-03-27T15:07:35.140Z,97893.00
2023-03-27T15:10:31.661Z,97882.00
2023-03-27T15:13:25.760Z,97881.00
2023-03-27T15:15:59.674Z,97882.00
2023-03-27T15:18:58.444Z,97885.00
2023-03-27T15:22:00.592Z,97891.00
2023-03-27T15:24:40.644Z,97895.00
2023-03-27T15:27:20.293Z,97882.00
2023-03-27T15:30:07.796Z,97891.00
2023-03-27T15:32:50.638Z,97880.00
2023-03-27T15:35:35.057Z,97876.00
2023-03-27T15:38:04.913Z,97891.00
2023-03-27T15:40:40.906Z,97883.00
2023-03-27T15:43:08.994Z,97889.00
2023-03-27T15:46:17.567Z,97899.00
2023-03-27T15:48:50.719Z,97894.00
2023-03-27T15:51:20.459Z,97873.00
2023-03-27T15:53:50.820Z,97888.00
2023-03-27T15:56:40.284Z,97897.00
2023-03-27T15:59:14.908Z,97886.00
2023-03-27T16:01:53.806Z,97885.00
2023-03-27T16:05:01.468Z,97890.00
2023-03-27T16:07:42.359Z,97897.00
2023-03-27T16:10:12.282Z,97906.00
2023-03-27T16:13:00.618Z,97912.00
2023-03-27T16:15:35.789Z,97914.00
2023-03-27T16:18:33.421Z,97924.00
2023-03-27T16:21:13.362Z,97906.00
2023-03-27T16:23:40.813Z,97921.00
2023-03-27T16:26:14.841Z,97914.00
2023-03-27T16:28:42.526Z,97915.00
2023-03-27T16:31:12.624Z,97920.00
2023-03-27T16:33:42.903Z,97923.00
2023-03-27T16:36:32.415Z,97916.00
2023-03-27T16:38:59.373Z,97929.00
2023-03-27T16:41:26.178Z,97911.00
2023-03-27T16:43:52.955Z,97924.00
2023-03-27T16:46:26.670Z,97948.00
2023-03-27T16:48:54.719Z,97960.00
2023-03-27T16:51:25.222Z,97958.00
2023-03-27T16:53:53.013Z,97980.00
2023-03-27T16:56:21.152Z,97970.00
2023-03-27T16:58:48.170Z,97982.00
2023-03-27T17:01:15.210Z,97977.00
2023-03-27T17:03:42.206Z,97980.00
2023-03-27T17:06:12.432Z,97965.00
2023-03-27T17:08:39.246Z,97989.00
2023-03-27T17:11:09.890Z,97994.00
2023-03-27T17:13:37.487Z,98001.00
2023-03-27T17:16:06.263Z,98033.00
2023-03-27T17:18:34.352Z,98016.00
2023-03-27T17:21:01.191Z,97993.00
2023-03-27T17:23:28.418Z,97988.00
2023-03-27T17:25:55.508Z,97988.00
2023-03-27T17:28:22.382Z,97985.00
2023-03-27T17:31:01.031Z,97997.00
2023-03-27T17:33:31.326Z,97998.00
2023-03-27T17:35:58.451Z,97992.00
2023-03-27T17:38:25.565Z,97995.00
2023-03-27T17:40:52.607Z,97994.00
2023-03-27T17:43:19.484Z,97999.00
2023-03-27T17:45:47.791Z,98010.00
2023-03-27T17:48:15.096Z,98037.00
2023-03-27T17:50:41.919Z,98037.00
2023-03-27T17:53:08.818Z,98022.00
2023-03-27T17:55:39.720Z,98039.00
2023-03-27T17:58:10.220Z,98028.00
2023-03-27T18:00:41.504Z,98048.00
2023-03-27T18:03:08.893Z,98047.00
2023-03-27T18:05:38.227Z,98046.00
2023-03-27T18:08:06.264Z,98053.00
2023-03-27T18:10:36.884Z,98042.00
2023-03-27T18:13:04.000Z,98061.00
2023-03-27T18:15:31.043Z,98061.00
2023-03-27T18:17:58.278Z,98056.00
2023-03-27T18:20:25.191Z,98066.00
2023-03-27T18:22:51.990Z,98061.00
2023-03-27T18:25:18.846Z,98058.00
2023-03-27T18:27:46.064Z,98075.00
2023-03-27T18:30:16.045Z,98078.00
2023-03-27T18:32:45.794Z,98074.00
2023-03-27T18:35:19.648Z,98073.00
2023-03-27T18:37:47.126Z,98076.00
2023-03-27T18:40:18.366Z,98077.00
2023-03-27T18:42:45.968Z,98083.00
2023-03-27T18:45:16.520Z,98086.00
2023-03-27T18:47:44.783Z,98078.00
2023-03-27T18:50:14.071Z,98093.00
2023-03-27T18:52:41.619Z,98086.00
2023-03-27T18:55:10.983Z,98101.00
2023-03-27T18:57:38.134Z,98104.00
2023-03-27T19:00:08.602Z,98103.00
2023-03-27T19:02:36.629Z,98106.00
2023-03-27T19:05:04.482Z,98109.00
2023-03-27T19:07:31.529Z,98107.00
2023-03-27T19:09:58.835Z,98097.00
2023-03-27T19:12:37.047Z,98108.00
2023-03-27T19:15:20.245Z,98104.00
2023-03-27T19:17:59.253Z,98123.00
2023-03-27T19:20:46.742Z,98124.00
2023-03-27T19:23:24.661Z,98119.00
2023-03-27T19:25:51.922Z,98119.00
2023-03-27T19:28:19.409Z,98111.00
2023-03-27T19:30:47.724Z,98124.00
2023-03-27T19:33:14.550Z,98127.00
2023-03-27T19:35:41.372Z,98139.00
2023-03-27T19:38:08.144Z,98132.00
2023-03-27T19:40:35.149Z,98118.00
2023-03-27T19:43:02.053Z,98134.00
2023-03-27T19:45:29.049Z,98132.00
2023-03-27T19:47:56.155Z,98129.00
2023-03-27T19:50:23.220Z,98129.00
2023-03-27T19:53:01.468Z,98133.00
2023-03-27T19:55:34.815Z,98129.00
2023-03-27T19:58:01.598Z,98147.00
2023-03-27T20:00:30.131Z,98142.00
2023-03-27T20:02:58.302Z,98142.00
2023-03-27T20:05:25.782Z,98153.00
2023-03-27T20:07:52.564Z,98156.00
2023-03-27T20:10:21.239Z,98141.00
2023-03-27T20:12:48.761Z,98140.00
2023-03-27T20:15:15.887Z,98141.00
2023-03-27T20:17:43.563Z,98163.00
2023-03-27T20:20:11.562Z,98156.00
2023-03-27T20:22:50.105Z,98157.00
2023-03-27T20:25:17.538Z,98165.00
2023-03-27T20:27:45.648Z,98161.00
2023-03-27T20:30:14.542Z,98159.00
2023-03-27T20:32:42.083Z,98164.00
2023-03-27T20:35:20.538Z,98157.00
2023-03-27T20:37:56.324Z,98175.00
2023-03-27T20:40:25.947Z,98156.00
2023-03-27T20:43:03.265Z,98156.00
2023-03-27T20:45:31.133Z,98148.00
2023-03-27T20:48:03.686Z,98165.00
2023-03-27T20:50:31.419Z,98163.00
2023-03-27T20:52:58.201Z,98170.00
2023-03-27T20:55:33.570Z,98182.00
2023-03-27T20:58:02.922Z,98168.00
2023-03-27T21:00:29.754Z,98173.00
2023-03-27T21:02:56.729Z,98176.00
2023-03-27T21:05:23.749Z,98165.00
2023-03-27T21:07:52.527Z,98158.00
2023-03-27T21:10:22.886Z,98165.00
2023-03-27T21:12:51.052Z,98171.00
2023-03-27T21:15:18.005Z,98170.00
2023-03-27T21:17:44.814Z,98170.00
2023-03-27T21:20:12.110Z,98175.00
2023-03-27T21:22:38.927Z,98181.00
2023-03-27T21:25:06.468Z,98177.00
2023-03-27T21:27:33.322Z,98189.00
2023-03-27T21:30:00.289Z,98182.00
2023-03-27T21:32:27.453Z,98180.00
2023-03-27T21:34:54.212Z,98182.00
2023-03-27T21:37:21.361Z,98176.00
2023-03-27T21:39:48.124Z,98177.00
2023-03-27T21:42:16.287Z,98196.00
2023-03-27T21:44:44.298Z,98192.00
2023-03-27T21:47:12.880Z,98194.00
2023-03-27T21:49:39.793Z,98188.00
2023-03-27T21:52:06.753Z,98194.00
2023-03-27T21:54:33.619Z,98194.00
2023-03-27T21:57:00.679Z,98188.00
2023-03-27T21:59:28.119Z,98202.00
2023-03-27T22:01:55.022Z,98191.00
2023-03-27T22:04:21.983Z,98192.00
2023-03-27T22:06:48.869Z,98190.00
2023-03-27T22:09:16.874Z,98195.00
2023-03-27T22:11:44.317Z,98201.00
2023-03-27T22:14:11.247Z,98197.00
2023-03-27T22:16:38.334Z,98186.00
2023-03-27T22:19:05.249Z,98205.00
2023-03-27T22:21:32.197Z,98215.00
2023-03-27T22:23:59.664Z,98215.00
2023-03-27T22:26:34.203Z,98213.00
2023-03-27T22:29:01.233Z,98215.00
2023-03-27T22:31:29.491Z,98224.00
2023-03-27T22:33:56.610Z,98217.00
2023-03-27T22:36:23.517Z,98217.00
2023-03-27T22:38:50.525Z,98215.00
2023-03-27T22:41:17.502Z,98235.00
2023-03-27T22:43:44.826Z,98231.00
2023-03-27T22:46:19.611Z,98240.00
2023-03-27T22:48:46.885Z,98247.00
2023-03-27T22:51:14.313Z,98240.00
2023-03-27T22:53:41.475Z,98242.00
2023-03-27T22:56:09.048Z,98241.00
2023-03-27T22:58:36.033Z,98239.00
2023-03-27T23:01:05.275Z,98259.00
2023-03-27T23:03:33.256Z,98249.00
2023-03-27T23:06:00.610Z,98243.00
2023-03-27T23:08:28.622Z,98258.00
2023-03-27T23:11:05.403Z,98241.00
2023-03-27T23:13:34.601Z,98257.00
2023-03-27T23:16:01.823Z,98257.00
2023-03-27T23:18:28.918Z,98259.00
2023-03-27T23:21:03.742Z,98278.00
2023-03-27T23:23:32.912Z,98273.00
2023-03-27T23:26:00.430Z,98262.00
2023-03-27T23:28:32.668Z,98264.00
2023-03-27T23:31:03.764Z,98272.00
2023-03-27T23:33:37.210Z,98263.00
2023-03-27T23:36:23.531Z,98285.00
2023-03-27T23:38:52.097Z,98287.00
2023-03-27T23:41:20.425Z,98269.00
2023-03-27T23:43:48.367Z,98286.00
2023-03-27T23:46:15.690Z,98290.00
2023-03-27T23:48:44.875Z,98282.00
2023-03-27T23:51:14.880Z,98296.00
2023-03-27T23:53:42.454Z,98314.00
2023-03-27T23:56:10.485Z,98312.00
2023-03-27T23:58:37.673Z,98302.00
